Time;durP1;ratioP1;P1;durP2;ratioP2;P2;SDS_P1;SDS_P2;PMS_P1;PMS_P2;Temp;Humidity;BMP_temperature;BMP_pressure;BME280_temperature;BME280_humidity;BME280_pressure;Samples;Min_cycle;Max_cycle;Signal;HPM_P1;HPM_P2
2024/02/19 00:01:25;;;;;;;1277.05;585.60;;;;;;;21.17;40.53;102276.78;5020784;28;20639;-85
2024/02/19 00:03:51;;;;;;;1284.35;597.00;;;;;;;21.12;40.53;102279.06;5026630;28;20471;-83
2024/02/19 00:06:17;;;;;;;1311.60;611.97;;;;;;;21.52;40.42;102344.81;5020766;28;20041;-83
2024/02/19 00:08:42;;;;;;;1313.47;615.35;;;;;;;21.19;40.64;102298.69;5022955;28;20044;-84
2024/02/19 00:11:08;;;;;;;1270.70;594.67;;;;;;;21.48;40.17;102350.59;5019398;28;20461;-83
2024/02/19 00:13:35;;;;;;;1253.95;590.92;;;;;;;21.25;40.63;102313.97;5020839;28;20171;-83
2024/02/19 00:16:01;;;;;;;1260.70;594.38;;;;;;;21.46;40.32;102358.69;5008861;28;20045;-85
2024/02/19 00:18:27;;;;;;;1267.97;597.60;;;;;;;21.43;40.59;102353.72;5019772;28;20037;-84
2024/02/19 00:20:52;;;;;;;1269.07;596.20;;;;;;;21.43;40.55;102359.00;5023503;28;21868;-84
2024/02/19 00:23:18;;;;;;;1253.93;594.50;;;;;;;21.27;40.39;102346.44;5017291;28;20045;-84
2024/02/19 00:25:43;;;;;;;1267.68;596.83;;;;;;;21.40;40.58;102369.91;5022019;28;20041;-84
2024/02/19 00:28:10;;;;;;;1262.25;584.78;;;;;;;21.38;40.41;102371.91;5019431;28;20418;-84
2024/02/19 00:30:36;;;;;;;1262.53;579.40;;;;;;;21.37;40.55;102365.75;5016528;28;20076;-84
2024/02/19 00:33:01;;;;;;;1248.40;573.08;;;;;;;21.11;40.60;102331.22;5016243;28;20054;-82
2024/02/19 00:35:27;;;;;;;1264.13;578.05;;;;;;;20.98;40.23;102316.69;5019567;28;20041;-85
2024/02/19 00:37:53;;;;;;;1248.30;571.85;;;;;;;21.28;40.40;102363.19;5020576;28;20045;-84
2024/02/19 00:40:19;;;;;;;1254.50;574.35;;;;;;;21.25;40.57;102368.78;5018397;28;20048;-84
2024/02/19 00:42:44;;;;;;;1261.45;580.67;;;;;;;21.32;40.34;102385.72;5022684;28;20044;-84
2024/02/19 00:45:11;;;;;;;1220.97;549.20;;;;;;;21.15;40.42;102371.47;5025000;28;20136;-84
2024/02/19 00:47:36;;;;;;;1246.88;570.92;;;;;;;21.12;40.54;102372.59;5020224;28;20054;-84
2024/02/19 00:50:03;;;;;;;1243.40;570.78;;;;;;;21.29;40.41;102397.47;5018232;28;20102;-84
2024/02/19 00:52:29;;;;;;;1234.07;559.20;;;;;;;21.09;40.23;102372.91;5022328;28;20132;-84
2024/02/19 00:54:57;;;;;;;1258.05;571.90;;;;;;;21.27;40.24;102404.75;5020563;28;20049;-85
2024/02/19 00:57:23;;;;;;;1234.05;564.63;;;;;;;21.10;40.35;102387.81;5024189;28;20041;-84
2024/02/19 00:59:49;;;;;;;1221.88;554.10;;;;;;;21.25;40.55;102403.22;5021792;28;20076;-83
2024/02/19 01:02:14;;;;;;;1175.63;521.95;;;;;;;21.12;40.29;102398.25;5022560;28;20079;-84
2024/02/19 01:04:40;;;;;;;1166.35;515.38;;;;;;;21.21;40.16;102407.13;5021952;28;20060;-84
2024/02/19 01:07:06;;;;;;;1191.05;532.45;;;;;;;21.19;40.30;102409.09;5024978;28;20112;-83
2024/02/19 01:09:31;;;;;;;1167.30;517.13;;;;;;;21.13;40.41;102403.41;5024340;28;20057;-84
2024/02/19 01:11:57;;;;;;;1182.05;529.75;;;;;;;20.91;40.30;102368.59;5024020;28;20052;-84
2024/02/19 01:14:23;;;;;;;1136.32;491.50;;;;;;;21.16;40.56;102409.38;5018536;28;20037;-87
2024/02/19 01:16:48;;;;;;;1123.28;485.50;;;;;;;20.99;40.32;102388.03;5021811;28;20044;-83
2024/02/19 01:19:14;;;;;;;1138.03;492.02;;;;;;;21.04;40.24;102395.53;5021905;28;20478;-84
2024/02/19 01:21:40;;;;;;;1147.28;495.20;;;;;;;21.07;40.31;102413.78;5021269;28;20052;-84
2024/02/19 01:24:06;;;;;;;1162.72;502.60;;;;;;;21.10;40.18;102419.59;5027597;28;20056;-83
2024/02/19 01:26:32;;;;;;;1161.10;502.40;;;;;;;20.98;40.30;102401.41;5024095;28;20041;-84
2024/02/19 01:28:57;;;;;;;1171.78;505.17;;;;;;;21.11;40.56;102433.69;5022747;28;20054;-84
2024/02/19 01:31:23;;;;;;;1196.63;517.22;;;;;;;21.10;40.19;102437.31;5023698;28;20064;-85
2024/02/19 01:33:48;;;;;;;1186.80;512.35;;;;;;;21.08;40.44;102434.81;5029167;28;20102;-84
2024/02/19 01:36:14;;;;;;;1188.22;516.13;;;;;;;21.07;40.38;102434.97;5018862;28;20033;-84
2024/02/19 01:38:41;;;;;;;1139.43;486.73;;;;;;;21.06;40.60;102439.44;5026029;28;20056;-84
2024/02/19 01:41:07;;;;;;;1147.78;490.38;;;;;;;21.05;40.52;102442.22;5018229;28;20358;-84
2024/02/19 01:43:33;;;;;;;1240.18;542.17;;;;;;;20.98;40.53;102436.69;5026682;28;20053;-83
2024/02/19 01:45:58;;;;;;;1222.28;536.30;;;;;;;20.79;40.58;102408.50;5028860;28;20444;-84
2024/02/19 01:48:24;;;;;;;1266.38;559.67;;;;;;;20.61;40.37;102375.03;5038121;28;20041;-83
2024/02/19 01:50:50;;;;;;;1324.38;601.60;;;;;;;20.71;40.51;102400.47;5023800;28;20052;-85
2024/02/19 01:53:16;;;;;;;1279.35;575.30;;;;;;;21.00;40.66;102447.13;5024472;28;20041;-84
2024/02/19 01:55:44;;;;;;;1269.40;571.97;;;;;;;21.00;40.56;102445.31;5019150;28;20434;-84
2024/02/19 01:58:11;;;;;;;1287.47;566.72;;;;;;;20.99;40.42;102453.41;5019140;28;20088;-83
2024/02/19 02:00:46;;;;;;;1296.53;578.20;;;;;;;20.97;40.57;102453.56;5023979;28;20783;-83
2024/02/19 02:03:20;;;;;;;1284.05;575.20;;;;;;;20.55;40.55;102394.97;5021615;28;20168;-83
2024/02/19 02:05:49;;;;;;;1284.93;576.30;;;;;;;20.96;40.34;102454.53;5019091;28;20054;-83
2024/02/19 02:08:15;;;;;;;1293.97;590.08;;;;;;;20.95;40.59;102455.53;5025268;28;20045;-84
2024/02/19 02:10:41;;;;;;;1310.90;610.40;;;;;;;20.69;40.42;102409.53;5019742;28;20083;-83
2024/02/19 02:13:08;;;;;;;1316.95;610.33;;;;;;;20.94;40.64;102458.31;5024309;28;20094;-83
2024/02/19 02:15:33;;;;;;;1324.97;613.53;;;;;;;20.94;40.55;102458.31;5026392;28;20053;-84
2024/02/19 02:17:59;;;;;;;1339.05;618.00;;;;;;;20.93;40.54;102464.59;5020514;28;20092;-84
2024/02/19 02:20:26;;;;;;;1335.30;616.83;;;;;;;20.91;40.50;102459.44;5015500;28;20034;-84
2024/02/19 02:22:52;;;;;;;1335.85;617.92;;;;;;;20.91;40.49;102463.91;5027143;28;20043;-84
2024/02/19 02:25:18;;;;;;;1327.50;611.28;;;;;;;20.62;40.49;102425.16;5019959;28;20378;-83
2024/02/19 02:27:45;;;;;;;1338.43;617.88;;;;;;;20.76;40.44;102447.69;5026410;28;20053;-84
2024/02/19 02:30:11;;;;;;;1367.07;642.72;;;;;;;20.57;40.59;102416.84;5007711;28;20045;-84
2024/02/19 02:32:37;;;;;;;1448.15;719.97;;;;;;;20.87;40.37;102459.91;5023876;28;20045;-83
2024/02/19 02:35:03;;;;;;;1509.15;770.75;;;;;;;20.72;40.65;102436.56;5022701;28;20056;-83
2024/02/19 02:37:30;;;;;;;1591.93;808.45;;;;;;;20.70;40.58;102432.38;5026518;28;20072;-84
2024/02/19 02:39:56;;;;;;;1592.15;824.05;;;;;;;20.84;40.64;102454.91;5018495;28;20084;-84
2024/02/19 02:42:21;;;;;;;1573.28;799.35;;;;;;;20.72;40.66;102441.00;5022440;28;20128;-86
2024/02/19 02:44:47;;;;;;;1579.60;792.92;;;;;;;20.82;40.43;102455.03;5023756;28;21172;-86
2024/02/19 02:47:12;;;;;;;1557.15;771.75;;;;;;;20.81;40.59;102450.72;5009116;28;20049;-85
2024/02/19 02:49:38;;;;;;;1575.43;773.25;;;;;;;20.80;40.52;102451.69;5020222;28;20113;-84
2024/02/19 02:52:03;;;;;;;1563.03;780.20;;;;;;;20.79;40.69;102445.56;5024995;28;20167;-84
2024/02/19 02:54:29;;;;;;;1612.03;802.42;;;;;;;20.49;40.51;102409.63;5016407;28;20573;-84
2024/02/19 02:56:54;;;;;;;1595.65;800.88;;;;;;;20.78;40.76;102464.25;5019373;28;20030;-85
2024/02/19 02:59:20;;;;;;;1610.75;810.80;;;;;;;20.78;40.71;102458.94;5019848;28;20115;-84
2024/02/19 03:01:45;;;;;;;1603.03;801.58;;;;;;;20.61;40.52;102439.38;5018804;28;20049;-84
2024/02/19 03:04:11;;;;;;;1618.55;824.55;;;;;;;20.61;40.66;102436.72;5020159;28;20037;-84
2024/02/19 03:06:37;;;;;;;1618.03;818.72;;;;;;;20.74;40.48;102450.47;5020761;28;20037;-85
2024/02/19 03:09:05;;;;;;;1611.63;775.70;;;;;;;20.74;40.58;102454.94;5017437;28;20053;-85
2024/02/19 03:11:30;;;;;;;1643.03;836.40;;;;;;;20.33;40.88;102397.97;5022691;28;20090;-86
2024/02/19 03:13:56;;;;;;;1635.20;822.92;;;;;;;20.35;40.57;102393.38;5023447;28;20034;-84
2024/02/19 03:16:22;;;;;;;1563.30;748.25;;;;;;;20.70;40.68;102462.34;5008943;28;20408;-84
2024/02/19 03:18:47;;;;;;;1585.70;754.05;;;;;;;20.71;40.80;102460.53;5024033;28;20037;-84
2024/02/19 03:21:15;;;;;;;1534.60;726.53;;;;;;;20.71;40.55;102461.34;5022156;28;20044;-85
2024/02/19 03:23:54;;;;;;;1561.88;734.97;;;;;;;20.70;40.60;102464.16;5018555;28;20050;-83
2024/02/19 03:26:27;;;;;;;1581.57;753.95;;;;;;;20.69;40.76;102465.13;5021334;28;20786;-84
2024/02/19 03:28:53;;;;;;;1624.47;796.42;;;;;;;20.68;40.79;102471.41;4997254;28;20068;-83
2024/02/19 03:31:19;;;;;;;1638.80;813.78;;;;;;;20.66;40.78;102476.84;5022191;28;20038;-84
2024/02/19 03:33:45;;;;;;;1636.03;800.25;;;;;;;20.67;40.63;102475.88;5019520;28;20068;-83
2024/02/19 03:36:11;;;;;;;1640.85;815.72;;;;;;;20.65;40.88;102474.34;5025137;28;20465;-84
2024/02/19 03:38:37;;;;;;;1670.53;840.88;;;;;;;20.58;40.84;102466.13;5019025;28;20044;-83
2024/02/19 03:41:07;;;;;;;1617.22;760.20;;;;;;;20.65;40.69;102461.94;5025427;28;20037;-83
2024/02/19 03:43:33;;;;;;;;;;;;;;;20.64;40.74;102470.00;5021499;28;20164;-84
2024/02/19 03:46:00;;;;;;;1638.15;785.22;;;;;;;20.38;40.84;102424.81;5019580;28;20329;-83
2024/02/19 03:48:26;;;;;;;1638.47;786.58;;;;;;;20.45;40.82;102440.00;5019981;28;20123;-84
2024/02/19 03:50:51;;;;;;;1601.20;747.95;;;;;;;20.56;40.77;102457.50;5021598;28;20120;-84
2024/02/19 03:53:17;;;;;;;1526.50;729.33;;;;;;;20.55;40.85;102469.09;5022012;28;20037;-84
2024/02/19 03:55:43;;;;;;;1544.72;729.00;;;;;;;20.45;40.81;102452.38;5011615;28;20033;-85
2024/02/19 03:58:08;;;;;;;1550.93;731.00;;;;;;;20.59;40.77;102480.22;5022157;28;20056;-83
2024/02/19 04:00:34;;;;;;;1621.28;839.40;;;;;;;20.52;40.73;102464.91;5021762;28;20037;-84
2024/02/19 04:02:59;;;;;;;1613.63;786.10;;;;;;;20.51;41.02;102462.41;5023837;28;20045;-84
2024/02/19 04:05:25;;;;;;;1631.07;814.05;;;;;;;20.45;40.90;102449.75;5019564;28;20123;-84
2024/02/19 04:07:50;;;;;;;1618.13;799.75;;;;;;;20.37;40.82;102439.03;5006915;28;20045;-84
2024/02/19 04:10:16;;;;;;;1616.38;774.85;;;;;;;20.41;41.00;102448.38;5018655;28;20041;-84
2024/02/19 04:12:42;;;;;;;1618.13;742.05;;;;;;;20.55;40.99;102477.03;5021872;28;20037;-84
2024/02/19 04:15:08;;;;;;;1561.30;703.50;;;;;;;20.10;40.76;102398.31;5021632;28;20045;-83
2024/02/19 04:17:33;;;;;;;1559.07;720.33;;;;;;;20.51;41.04;102473.84;5024158;28;20041;-84
2024/02/19 04:19:59;;;;;;;1511.05;687.53;;;;;;;20.42;40.83;102460.63;5020122;28;20041;-84
2024/02/19 04:22:24;;;;;;;1512.88;690.90;;;;;;;20.54;40.62;102471.88;5019756;28;20071;-84
2024/02/19 04:24:50;;;;;;;1517.57;689.22;;;;;;;20.52;41.02;102472.03;5019492;28;20038;-83
2024/02/19 04:27:17;;;;;;;1502.43;691.67;;;;;;;20.44;40.98;102462.13;5021536;28;20373;-83
2024/02/19 04:29:46;;;;;;;1544.38;709.83;;;;;;;20.50;40.88;102473.97;5018209;28;20057;-84
2024/02/19 04:32:11;;;;;;;1563.32;720.00;;;;;;;20.43;40.70;102463.13;5017286;28;20041;-85
2024/02/19 04:34:37;;;;;;;1549.53;712.47;;;;;;;20.38;41.00;102454.75;5014370;28;20052;-83
2024/02/19 04:37:02;;;;;;;1598.20;732.22;;;;;;;20.48;40.95;102473.28;5015505;28;20489;-84
2024/02/19 04:39:28;;;;;;;1609.00;738.22;;;;;;;20.43;40.96;102472.88;5018915;28;20215;-83
2024/02/19 04:41:54;;;;;;;1609.15;737.55;;;;;;;20.48;41.03;102475.94;5019689;28;20474;-83
2024/02/19 04:44:19;;;;;;;1636.10;783.85;;;;;;;20.32;41.02;102455.34;5020823;28;20049;-83
2024/02/19 04:46:45;;;;;;;1633.40;794.75;;;;;;;20.46;41.04;102477.88;5013439;28;20037;-84
2024/02/19 04:49:10;;;;;;;1681.82;836.42;;;;;;;20.46;41.13;102473.41;5019868;28;20052;-83
2024/02/19 04:51:36;;;;;;;1676.22;820.40;;;;;;;20.45;40.90;102471.75;5023037;28;20083;-83
2024/02/19 04:54:02;;;;;;;1640.20;753.92;;;;;;;20.45;40.87;102477.03;5020536;28;20473;-83
2024/02/19 04:56:28;;;;;;;1684.43;819.38;;;;;;;20.43;41.19;102473.69;5019247;28;20044;-83
2024/02/19 04:58:55;;;;;;;1711.85;856.35;;;;;;;20.17;40.91;102430.31;5014384;28;20045;-84
2024/02/19 05:01:20;;;;;;;1797.93;939.88;;;;;;;20.44;40.95;102472.72;5021231;28;20052;-83
2024/02/19 05:03:46;;;;;;;1530.68;673.95;;;;;;;20.21;40.83;102435.16;5014494;28;20046;-84
2024/02/19 05:06:12;;;;;;;1803.35;902.35;;;;;;;20.33;41.02;102451.72;5021816;28;20044;-83
2024/02/19 05:08:37;;;;;;;1771.22;862.17;;;;;;;20.47;41.13;102466.34;5015262;28;20041;-84
2024/02/19 05:11:04;;;;;;;1703.75;758.97;;;;;;;20.48;41.23;102470.66;5014425;28;20048;-84
2024/02/19 05:13:36;;;;;;;1722.75;780.83;;;;;;;20.38;41.04;102454.75;5014311;28;20065;-84
2024/02/19 05:16:02;;;;;;;1677.40;678.90;;;;;;;20.62;41.15;102470.16;4985571;28;20045;-85
2024/02/19 05:18:27;;;;;;;1847.40;880.95;;;;;;;20.56;41.05;102424.91;5017318;28;20049;-88
2024/02/19 05:20:53;;;;;;;1864.95;871.33;;;;;;;21.36;40.18;102451.53;5024204;28;20108;-85
2024/02/19 05:23:18;;;;;;;1712.05;747.65;;;;;;;22.06;39.35;102464.06;5019764;28;20388;-89
2024/02/19 05:25:44;;;;;;;1631.30;683.63;;;;;;;22.68;38.34;102462.97;5024525;28;20034;-90
2024/02/19 05:28:09;;;;;;;1528.35;650.92;;;;;;;23.11;37.69;102455.81;5022618;28;20115;-87
2024/02/19 05:30:36;;;;;;;1646.18;745.92;;;;;;;23.50;36.77;102409.03;5021146;28;20042;-89
2024/02/19 05:33:01;;;;;;;1535.85;683.17;;;;;;;23.78;36.98;102446.78;4972745;28;20050;-89
2024/02/19 05:35:27;;;;;;;1585.35;723.40;;;;;;;23.38;36.87;102381.13;5022464;28;20099;-89
2024/02/19 05:37:53;;;;;;;1589.25;679.20;;;;;;;23.70;37.06;102453.97;4996949;28;20044;-87
2024/02/19 05:40:18;;;;;;;1641.88;726.75;;;;;;;23.37;37.35;102429.97;5000804;28;20037;-89
2024/02/19 05:42:44;;;;;;;1655.07;729.55;;;;;;;23.34;37.92;102458.69;5002928;28;20064;-89
2024/02/19 05:45:10;;;;;;;1669.43;821.13;;;;;;;23.17;38.31;102468.47;4975539;28;20079;-87
2024/02/19 05:47:36;;;;;;;1643.93;762.90;;;;;;;22.92;38.83;102464.91;5005934;28;20033;-89
2024/02/19 05:50:02;;;;;;;1699.65;834.78;;;;;;;22.92;38.87;102457.75;5019747;28;20041;-88
2024/02/19 05:52:27;;;;;;;1702.65;798.42;;;;;;;22.83;39.14;102452.59;4987449;28;20045;-88
2024/02/19 05:54:53;;;;;;;1197.53;492.70;;;;;;;22.52;39.27;102423.06;4981672;28;20496;-86
2024/02/19 05:57:19;;;;;;;1779.22;883.30;;;;;;;22.69;39.53;102448.69;4991236;28;20064;-89
2024/02/19 05:59:44;;;;;;;1770.57;887.25;;;;;;;22.46;39.59;102435.16;5011955;28;20053;-89
2024/02/19 06:02:10;;;;;;;1807.57;952.83;;;;;;;22.52;39.52;102444.28;5016191;28;20069;-87
2024/02/19 06:04:35;;;;;;;1814.25;861.65;;;;;;;22.60;39.77;102469.03;4984433;28;20033;-86
2024/02/19 06:07:01;;;;;;;1829.43;858.45;;;;;;;22.63;39.82;102472.41;5019962;28;20100;-88
2024/02/19 06:09:27;;;;;;;1869.15;879.05;;;;;;;22.43;39.91;102442.56;4993391;28;20466;-83
2024/02/19 06:11:52;;;;;;;1839.35;853.70;;;;;;;22.56;39.97;102464.22;5017441;28;20050;-87
2024/02/19 06:14:18;;;;;;;1869.35;869.28;;;;;;;22.52;39.64;102473.50;4990031;28;20047;-89
2024/02/19 06:16:43;;;;;;;1865.68;854.67;;;;;;;22.61;39.78;102470.69;5020440;28;20035;-92
2024/02/19 06:19:10;;;;;;;1855.38;903.03;;;;;;;22.63;39.63;102465.25;4977215;28;20044;-88
2024/02/19 06:21:36;;;;;;;1871.50;909.30;;;;;;;22.53;39.85;102449.44;5014598;28;20053;-89
2024/02/19 06:24:01;;;;;;;1889.63;899.88;;;;;;;22.66;39.81;102467.59;4981377;28;20504;-88
2024/02/19 06:26:26;;;;;;;1928.78;918.60;;;;;;;22.72;39.46;102466.13;5016563;28;20303;-87
2024/02/19 06:28:52;;;;;;;1901.70;897.95;;;;;;;22.74;39.80;102454.34;4984678;28;20064;-87
2024/02/19 06:31:17;;;;;;;1873.63;875.95;;;;;;;22.57;39.81;102448.13;5019381;28;20052;-87
2024/02/19 06:33:43;;;;;;;1875.45;876.10;;;;;;;22.07;39.88;102365.75;4989420;28;20069;-91
2024/02/19 06:36:08;;;;;;;1876.72;870.85;;;;;;;22.68;40.01;102467.44;5020375;28;20045;-87
2024/02/19 06:38:34;;;;;;;1891.10;882.45;;;;;;;22.38;39.96;102421.00;4983428;28;20073;-89
2024/02/19 06:40:59;;;;;;;1898.53;887.72;;;;;;;22.65;40.05;102470.41;5019869;28;20037;-90
2024/02/19 06:43:25;;;;;;;1850.03;886.88;;;;;;;22.53;40.18;102457.41;4970048;28;20041;-89
2024/02/19 06:45:52;;;;;;;1841.75;875.72;;;;;;;22.60;39.87;102468.22;5020890;28;20041;-87
2024/02/19 06:48:17;;;;;;;1855.97;917.90;;;;;;;22.28;40.03;102416.63;4988417;28;20120;-90
2024/02/19 06:50:43;;;;;;;1880.85;929.80;;;;;;;22.57;40.01;102473.84;5017508;28;20041;-91
2024/02/19 06:53:08;;;;;;;1889.40;965.45;;;;;;;22.57;40.02;102469.38;4993785;28;20044;-86
2024/02/19 06:55:34;;;;;;;1940.75;980.13;;;;;;;22.59;40.18;102474.50;5012227;28;20041;-88
2024/02/19 06:58:00;;;;;;;1923.80;971.22;;;;;;;22.29;40.40;102433.41;5003860;28;20073;-90
2024/02/19 07:00:26;;;;;;;1876.82;999.90;;;;;;;22.59;40.14;102477.16;5011486;28;20025;-87
2024/02/19 07:02:52;;;;;;;1874.35;999.90;;;;;;;22.52;40.30;102466.34;5015759;28;20571;-84
2024/02/19 07:05:18;;;;;;;1911.55;999.90;;;;;;;22.10;40.39;102401.78;4985554;28;20116;-86
2024/02/19 07:07:43;;;;;;;1675.00;746.00;;;;;;;22.40;40.47;102451.69;5008697;28;20120;-86
2024/02/19 07:10:09;;;;;;;1470.40;603.88;;;;;;;22.27;40.18;102440.69;5018456;28;20046;-83
2024/02/19 07:12:35;;;;;;;1650.40;711.83;;;;;;;22.53;40.24;102468.03;4996188;28;20045;-90
2024/02/19 07:15:00;;;;;;;1778.50;814.08;;;;;;;22.52;40.27;102473.50;5012719;28;20119;-90
2024/02/19 07:17:29;;;;;;;1671.38;732.72;;;;;;;22.32;40.40;102449.00;4978971;28;20756;-88
2024/02/19 07:19:54;;;;;;;1516.53;629.67;;;;;;;22.14;40.14;102421.69;5017752;28;20668;-90
2024/02/19 07:22:20;;;;;;;1641.63;714.08;;;;;;;22.37;39.93;102480.38;5012102;28;20060;-79
2024/02/19 07:24:46;;;;;;;1672.63;715.97;;;;;;;22.34;40.76;102478.03;4986313;28;20053;-82
2024/02/19 07:27:12;;;;;;;1859.35;858.13;;;;;;;22.31;40.52;102473.88;5000957;28;20049;-83
2024/02/19 07:29:38;;;;;;;1834.93;846.95;;;;;;;22.18;40.76;102454.88;4988591;28;20054;-83
2024/02/19 07:32:03;;;;;;;1584.05;634.10;;;;;;;22.25;40.71;102474.47;5017412;28;20095;-83
2024/02/19 07:34:29;;;;;;;1604.57;648.80;;;;;;;22.07;40.26;102468.38;4985714;28;20041;-83
2024/02/19 07:36:54;;;;;;;1721.47;712.20;;;;;;;22.31;40.33;102482.66;5018078;28;20044;-85
2024/02/19 07:39:20;;;;;;;1760.72;712.65;;;;;;;22.35;40.65;102480.53;4990698;28;20328;-85
2024/02/19 07:41:46;;;;;;;1707.18;701.88;;;;;;;22.42;40.57;102481.56;5018734;28;20057;-84
2024/02/19 07:44:12;;;;;;;1720.45;696.25;;;;;;;22.35;40.42;102466.44;4982478;28;20064;-84
2024/02/19 07:46:38;;;;;;;1768.03;732.85;;;;;;;22.46;40.26;102485.59;5017881;28;20288;-83
2024/02/19 07:49:03;;;;;;;1703.07;707.50;;;;;;;22.52;40.08;102479.63;4976266;28;20462;-84
2024/02/19 07:51:29;;;;;;;1525.93;617.03;;;;;;;22.27;40.19;102462.75;5014454;28;20060;-84
2024/02/19 07:53:55;;;;;;;1630.90;678.78;;;;;;;22.26;39.53;102470.84;4984879;28;20037;-84
2024/02/19 07:56:20;;;;;;;1637.80;682.33;;;;;;;22.27;39.87;102483.16;5017939;28;20057;-83
2024/02/19 07:58:46;;;;;;;1678.18;705.42;;;;;;;22.32;39.85;102472.88;4984121;28;20532;-83
2024/02/19 08:01:11;;;;;;;1742.88;756.17;;;;;;;22.43;40.03;102482.38;5016208;28;20045;-83
2024/02/19 08:03:37;;;;;;;1748.15;752.78;;;;;;;22.42;40.05;102481.56;4981232;28;20041;-82
2024/02/19 08:06:03;;;;;;;1765.25;771.15;;;;;;;22.16;39.97;102446.25;5014298;28;20041;-81
2024/02/19 08:08:29;;;;;;;1742.53;737.38;;;;;;;22.39;39.64;102476.56;4986419;28;20805;-83
2024/02/19 08:10:54;;;;;;;1813.82;795.42;;;;;;;22.28;39.84;102461.75;5016977;28;20037;-83
2024/02/19 08:13:20;;;;;;;1843.07;830.28;;;;;;;22.42;39.57;102467.44;4983582;28;20037;-85
2024/02/19 08:15:45;;;;;;;1863.78;850.72;;;;;;;22.50;39.70;102457.72;5013779;28;20108;-82
2024/02/19 08:18:12;;;;;;;1847.00;829.63;;;;;;;22.54;39.66;102469.69;5006357;28;20275;-85
2024/02/19 08:20:38;;;;;;;1881.75;848.33;;;;;;;22.56;39.76;102480.16;5015228;28;20069;-82
2024/02/19 08:23:04;;;;;;;1737.75;722.35;;;;;;;22.59;39.57;102464.72;4968833;28;20079;-86
2024/02/19 08:25:30;;;;;;;1730.00;723.05;;;;;;;22.55;39.61;102465.22;5023301;28;20029;-84
2024/02/19 08:27:56;;;;;;;1657.45;691.15;;;;;;;22.59;39.77;102464.72;4985295;28;20038;-85
2024/02/19 08:30:21;;;;;;;1823.15;896.95;;;;;;;22.62;39.51;102458.25;5016778;28;20052;-83
2024/02/19 08:32:47;;;;;;;1830.35;906.35;;;;;;;22.62;39.97;102463.56;4985648;28;20595;-83
2024/02/19 08:35:12;;;;;;;1766.50;800.65;;;;;;;22.44;39.51;102425.66;5016483;28;20042;-84
2024/02/19 08:37:38;;;;;;;1739.22;734.50;;;;;;;22.40;39.60;102405.72;4969795;28;20044;-83
2024/02/19 08:40:05;;;;;;;1773.47;780.60;;;;;;;22.37;39.98;102412.19;5016635;28;20099;-86
2024/02/19 08:42:31;;;;;;;1789.28;788.40;;;;;;;22.57;39.89;102448.13;4983247;28;20037;-85
2024/02/19 08:44:56;;;;;;;1831.13;816.15;;;;;;;22.63;40.20;102445.84;5016177;28;20083;-83
2024/02/19 08:47:22;;;;;;;1871.55;866.25;;;;;;;22.64;40.09;102442.19;4977966;28;20060;-86
2024/02/19 08:49:47;;;;;;;1883.53;840.47;;;;;;;22.67;39.78;102444.53;5015350;28;20061;-84
2024/02/19 08:52:14;;;;;;;1886.63;834.00;;;;;;;22.53;40.03;102446.78;4988498;28;20029;-84
2024/02/19 08:54:40;;;;;;;1857.35;805.97;;;;;;;22.54;40.22;102442.31;5018166;28;20551;-85
2024/02/19 08:57:05;;;;;;;1828.13;804.65;;;;;;;22.61;40.37;102441.50;4977411;28;20525;-87
2024/02/19 08:59:31;;;;;;;1894.40;892.10;;;;;;;22.64;40.10;102437.72;5017814;28;20045;-85
2024/02/19 09:01:57;;;;;;;1765.60;758.38;;;;;;;22.65;40.03;102442.03;4986154;28;20478;-87
2024/02/19 09:04:24;;;;;;;1811.68;807.40;;;;;;;22.63;40.05;102440.53;5020686;28;20060;-87
2024/02/19 09:06:50;;;;;;;1742.10;723.63;;;;;;;22.70;40.29;102439.72;4996146;28;20091;-87
2024/02/19 09:09:16;;;;;;;1809.43;820.78;;;;;;;22.61;39.25;102432.69;5021218;28;20038;-85
2024/02/19 09:11:41;;;;;;;1801.07;769.75;;;;;;;22.57;39.67;102434.03;4987468;28;20073;-85
2024/02/19 09:14:07;;;;;;;1841.18;796.53;;;;;;;22.66;39.78;102448.19;5012656;28;20034;-84
2024/02/19 09:16:33;;;;;;;1759.63;707.05;;;;;;;22.67;40.07;102439.22;4958495;28;20034;-85
2024/02/19 09:18:59;;;;;;;1780.60;730.95;;;;;;;22.65;40.19;102430.59;5009443;28;20041;-88
2024/02/19 09:21:24;;;;;;;1731.35;722.70;;;;;;;22.73;39.98;102441.22;5018930;28;20048;-83
2024/02/19 09:23:50;;;;;;;1659.68;669.53;;;;;;;22.53;40.22;102409.63;4993547;28;21565;-85
2024/02/19 09:26:16;;;;;;;1632.47;654.65;;;;;;;22.70;40.07;102426.44;5020736;28;20084;-84
2024/02/19 09:28:43;;;;;;;1684.00;691.60;;;;;;;22.77;40.01;102442.56;4992393;28;20058;-87
2024/02/19 09:31:10;;;;;;;1774.22;761.47;;;;;;;22.74;39.94;102437.56;5006753;28;20045;-86
2024/02/19 09:33:35;;;;;;;1856.07;882.35;;;;;;;;;;4997095;28;20124;-85
2024/02/19 09:36:01;;;;;;;1841.70;885.78;;;;;;;;;;5012626;28;20036;-84
2024/02/19 09:38:27;;;;;;;1591.72;648.38;;;;;;;;;;5019961;28;20036;-85
2024/02/19 09:40:53;;;;;;;1582.13;635.17;;;;;;;22.71;40.16;102419.31;4984449;28;20049;-87
2024/02/19 09:43:20;;;;;;;1439.97;575.75;;;;;;;22.70;40.12;102429.09;5017132;28;20037;-84
2024/02/19 09:45:48;;;;;;;1682.72;687.28;;;;;;;22.52;39.77;102394.69;4988642;28;20049;-85
2024/02/19 09:48:18;;;;;;;1720.25;708.85;;;;;;;22.47;39.67;102383.72;5017146;28;20040;-88
2024/02/19 09:50:47;;;;;;;;;;;;;;;22.85;39.87;102445.28;4989286;28;21772;-85
2024/02/19 09:53:21;;;;;;;1601.20;638.85;;;;;;;22.84;39.94;102452.44;5017227;28;19938;-83
2024/02/19 09:55:47;;;;;;;1689.03;691.58;;;;;;;22.67;40.21;102447.19;4971872;28;20037;-83
2024/02/19 09:58:13;;;;;;;1596.28;644.03;;;;;;;22.57;40.15;102432.19;5000514;28;20037;-83
2024/02/19 10:00:39;;;;;;;1586.75;641.10;;;;;;;22.69;40.18;102453.16;4981251;28;20119;-84
2024/02/19 10:03:06;;;;;;;1581.28;644.00;;;;;;;22.66;39.98;102446.34;5023804;28;20049;-82
2024/02/19 10:05:32;;;;;;;1608.15;655.33;;;;;;;22.66;40.36;102449.00;4983408;28;20125;-84
2024/02/19 10:08:03;;;;;;;1637.95;673.08;;;;;;;22.65;40.36;102454.47;5015184;28;20066;-83
2024/02/19 10:10:29;;;;;;;1864.72;783.47;;;;;;;22.50;40.16;102460.38;4984467;28;20158;-80
2024/02/19 10:12:55;;;;;;;1858.45;780.50;;;;;;;22.52;40.25;102452.25;5019192;28;20053;-80
2024/02/19 10:15:21;;;;;;;1842.30;752.25;;;;;;;22.44;40.30;102433.63;4972865;28;20037;-80
2024/02/19 10:17:47;;;;;;;1948.43;869.55;;;;;;;22.43;40.55;102435.44;5018057;28;20068;-81
2024/02/19 10:20:13;;;;;;;1949.03;882.58;;;;;;;22.36;40.35;102420.31;4950757;28;20041;-80
2024/02/19 10:22:39;;;;;;;1926.60;817.38;;;;;;;22.35;40.26;102423.97;5019237;28;20505;-80
2024/02/19 10:25:07;;;;;;;1929.60;817.88;;;;;;;22.46;40.52;102458.22;4970428;28;20107;-80
2024/02/19 10:27:37;;;;;;;1981.40;859.53;;;;;;;22.30;40.38;102422.63;5016733;28;20045;-81
2024/02/19 10:30:07;;;;;;;1999.90;922.92;;;;;;;22.49;40.09;102449.91;4972418;28;20060;-81
2024/02/19 10:32:32;;;;;;;1961.95;872.55;;;;;;;22.51;40.18;102453.25;5012202;28;20144;-81
2024/02/19 10:34:58;;;;;;;1952.65;856.28;;;;;;;22.48;40.33;102445.59;4969324;28;20190;-80
2024/02/19 10:37:23;;;;;;;1947.30;836.50;;;;;;;22.38;40.07;102431.59;5019975;28;20041;-81
2024/02/19 10:39:49;;;;;;;1920.50;798.38;;;;;;;22.45;40.13;102446.75;4968139;28;20073;-80
2024/02/19 10:42:15;;;;;;;1899.57;795.55;;;;;;;22.45;40.41;102443.28;5018284;28;20029;-80
2024/02/19 10:44:41;;;;;;;1866.97;782.15;;;;;;;22.18;40.00;102405.28;4972097;28;20052;-80